createdAt,value
2022-09-12T00:00:03.529Z,14.98
2022-09-12T00:02:36.639Z,13.95
2022-09-12T00:05:08.633Z,13.82
2022-09-12T00:07:40.436Z,13.50
2022-09-12T00:10:12.154Z,10.80
2022-09-12T00:12:44.043Z,12.52
2022-09-12T00:15:15.885Z,14.10
2022-09-12T00:17:48.993Z,10.68
2022-09-12T00:20:20.730Z,14.82
2022-09-12T00:22:52.516Z,19.80
2022-09-12T00:25:24.265Z,15.07
2022-09-12T00:27:56.079Z,14.88
2022-09-12T00:30:27.836Z,13.95
2022-09-12T00:33:00.956Z,12.43
2022-09-12T00:35:32.706Z,12.85
2022-09-12T00:38:04.426Z,16.92
2022-09-12T00:40:36.366Z,16.48
2022-09-12T00:43:13.843Z,16.50
2022-09-12T00:45:45.680Z,15.35
2022-09-12T00:48:30.862Z,14.75
2022-09-12T00:51:03.022Z,13.00
2022-09-12T00:53:34.905Z,14.05
2022-09-12T00:56:07.573Z,11.43
2022-09-12T00:58:42.946Z,11.52
2022-09-12T01:01:14.815Z,12.73
2022-09-12T01:03:48.125Z,13.55
2022-09-12T01:06:24.759Z,12.90
2022-09-12T01:08:59.173Z,12.70
2022-09-12T01:11:31.468Z,13.48
2022-09-12T01:14:03.307Z,14.13
2022-09-12T01:16:36.857Z,14.80
2022-09-12T01:19:25.505Z,10.57
2022-09-12T01:22:15.243Z,11.15
2022-09-12T01:25:03.158Z,11.65
2022-09-12T01:27:56.148Z,14.45
2022-09-12T01:30:44.518Z,11.15
2022-09-12T01:33:35.906Z,13.32
2022-09-12T01:36:31.300Z,13.10
2022-09-12T01:39:05.464Z,13.52
2022-09-12T01:41:49.926Z,14.90
2022-09-12T01:44:32.097Z,17.45
2022-09-12T01:47:09.354Z,16.80
2022-09-12T01:49:47.004Z,14.40
2022-09-12T01:52:25.060Z,14.15
2022-09-12T01:55:09.456Z,16.30
2022-09-12T01:57:46.041Z,12.55
2022-09-12T02:00:18.178Z,13.73
2022-09-12T02:02:55.836Z,11.32
2022-09-12T02:05:32.495Z,49.28
2022-09-12T02:08:10.163Z,69.85
2022-09-12T02:10:46.428Z,52.45
2022-09-12T02:13:24.637Z,53.40
2022-09-12T02:16:03.550Z,38.00
2022-09-12T02:18:38.876Z,24.80
2022-09-12T02:21:11.144Z,28.00
2022-09-12T02:23:48.509Z,27.13
2022-09-12T02:26:24.267Z,21.20
2022-09-12T02:29:02.129Z,19.58
2022-09-12T02:31:40.669Z,23.58
2022-09-12T02:34:30.201Z,22.10
2022-09-12T02:37:11.575Z,20.13
2022-09-12T02:39:47.912Z,16.17
2022-09-12T02:42:19.898Z,17.17
2022-09-12T02:44:53.868Z,18.40
2022-09-12T02:47:30.949Z,19.48
2022-09-12T02:50:06.735Z,18.45
2022-09-12T02:52:40.172Z,21.27
2022-09-12T02:57:44.603Z,19.95
2022-09-12T03:00:16.829Z,18.77
2022-09-12T03:03:09.697Z,17.38
2022-09-12T03:05:53.464Z,17.92
2022-09-12T03:11:34.213Z,15.48
2022-09-12T03:14:34.395Z,15.27
2022-09-12T03:17:16.470Z,15.30
2022-09-12T03:19:57.217Z,17.98
2022-09-12T03:22:40.093Z,18.42
2022-09-12T03:25:20.671Z,14.23
2022-09-12T03:27:59.112Z,13.27
2022-09-12T03:30:31.363Z,14.55
2022-09-12T03:33:06.194Z,11.98
2022-09-12T03:35:38.274Z,13.98
2022-09-12T03:38:14.058Z,12.38
2022-09-12T03:40:54.882Z,12.15
2022-09-12T03:43:29.878Z,12.07
2022-09-12T03:46:01.700Z,12.00
2022-09-12T03:48:33.608Z,11.82
2022-09-12T03:51:08.348Z,12.48
2022-09-12T03:53:41.510Z,12.18
2022-09-12T03:56:14.073Z,13.20
2022-09-12T03:58:46.122Z,11.53
2022-09-12T04:01:19.790Z,16.63
2022-09-12T04:03:52.815Z,16.17
2022-09-12T04:06:24.546Z,11.25
2022-09-12T04:08:58.342Z,9.70
2022-09-12T04:11:30.951Z,11.60
2022-09-12T04:14:02.764Z,12.70
2022-09-12T04:16:34.535Z,11.18
2022-09-12T04:19:06.326Z,11.25
2022-09-12T04:21:39.461Z,13.35
2022-09-12T04:24:12.516Z,13.30
2022-09-12T04:26:44.307Z,14.43
2022-09-12T04:29:16.168Z,12.93
2022-09-12T04:31:48.046Z,13.20
2022-09-12T04:34:19.805Z,11.65
2022-09-12T04:36:51.566Z,17.83
2022-09-12T04:39:24.803Z,16.40
2022-09-12T04:41:56.534Z,12.13
2022-09-12T04:44:28.758Z,13.02
2022-09-12T04:47:00.504Z,11.40
2022-09-12T04:49:32.452Z,11.50
2022-09-12T04:52:04.590Z,12.05
2022-09-12T04:54:37.938Z,31.08
2022-09-12T04:57:10.683Z,13.32
2022-09-12T04:59:42.565Z,67.00
2022-09-12T05:02:14.414Z,37.35
2022-09-12T05:04:46.875Z,139.57
2022-09-12T05:07:19.265Z,14.52
2022-09-12T06:00:34.798Z,16.25
2022-09-12T06:03:06.573Z,19.00
2022-09-12T06:05:38.302Z,16.33
2022-09-12T06:08:10.057Z,19.35
2022-09-12T06:10:43.557Z,20.88
2022-09-12T06:15:46.898Z,17.15
2022-09-12T06:18:18.725Z,17.95
2022-09-12T06:20:50.471Z,21.30
2022-09-12T06:23:22.443Z,21.65
2022-09-12T06:25:55.762Z,20.83
2022-09-12T06:28:27.876Z,20.85
2022-09-12T06:31:04.590Z,18.92
2022-09-12T06:33:38.794Z,25.00
2022-09-12T06:36:12.810Z,25.20
2022-09-12T06:38:46.382Z,29.60
2022-09-12T06:41:19.642Z,28.70
2022-09-12T06:43:52.033Z,35.95
2022-09-12T06:46:24.365Z,30.42
2022-09-12T06:48:56.360Z,26.73
2022-09-12T06:51:28.966Z,27.00
2022-09-12T06:54:00.982Z,21.00
2022-09-12T06:56:34.187Z,23.20
2022-09-12T06:59:06.669Z,20.60
2022-09-12T07:01:40.165Z,28.80
2022-09-12T07:04:12.097Z,24.65
2022-09-12T07:06:44.930Z,27.58
2022-09-12T07:09:17.007Z,28.33
2022-09-12T07:11:50.056Z,29.13
2022-09-12T07:14:21.933Z,32.42
2022-09-12T07:16:53.751Z,36.80
2022-09-12T07:19:25.585Z,36.15
2022-09-12T07:21:58.758Z,37.55
2022-09-12T07:24:30.691Z,37.50
2022-09-12T07:27:04.059Z,28.75
2022-09-12T07:29:37.418Z,29.58
2022-09-12T07:32:09.810Z,29.70
2022-09-12T07:34:41.631Z,34.55
2022-09-12T07:37:13.623Z,30.83
2022-09-12T07:59:09.212Z,26.52
2022-09-12T08:01:41.599Z,23.85
2022-09-12T08:04:13.469Z,31.30
2022-09-12T08:06:45.219Z,25.80
2022-09-12T08:09:17.503Z,25.13
2022-09-12T08:11:49.218Z,24.38
2022-09-12T08:14:22.566Z,22.23
2022-09-12T08:16:54.301Z,19.58
2022-09-12T08:19:26.215Z,17.33
2022-09-12T08:21:58.115Z,29.67
2022-09-12T08:24:29.893Z,18.52
2022-09-12T08:27:01.671Z,20.60
2022-09-12T08:29:34.812Z,20.33
2022-09-12T08:32:06.730Z,58.88
2022-09-12T08:34:38.499Z,40.17
2022-09-12T08:37:10.261Z,18.05
2022-09-12T08:39:42.109Z,32.35
2022-09-12T08:42:24.728Z,20.17
2022-09-12T08:45:09.303Z,17.20
2022-09-12T08:47:44.522Z,39.97
2022-09-12T08:50:18.988Z,18.52
2022-09-12T08:52:58.430Z,40.33
2022-09-12T08:55:33.343Z,18.42
2022-09-12T08:58:12.985Z,25.20
2022-09-12T09:00:55.789Z,23.67
2022-09-12T09:03:47.891Z,23.77
2022-09-12T09:06:39.897Z,17.90
2022-09-12T09:09:20.031Z,16.55
2022-09-12T09:12:04.355Z,17.33
2022-09-12T09:15:09.946Z,15.02
2022-09-12T09:17:45.283Z,17.30
2022-09-12T09:20:28.495Z,17.30
2022-09-12T09:23:06.177Z,17.98
2022-09-12T09:25:44.102Z,15.85
2022-09-12T09:28:20.156Z,15.63
2022-09-12T09:30:52.780Z,11.50
2022-09-12T09:33:30.914Z,11.45
2022-09-12T09:36:14.761Z,16.73
2022-09-12T09:38:49.922Z,8.02
2022-09-12T09:41:42.177Z,10.70
2022-09-12T09:44:14.110Z,15.05
2022-09-12T09:46:54.350Z,10.35
2022-09-12T09:49:30.259Z,15.18
2022-09-12T09:52:04.768Z,11.05
2022-09-12T09:54:40.136Z,8.93
2022-09-12T09:57:44.568Z,11.07
2022-09-12T10:00:30.428Z,8.95
2022-09-12T10:03:24.229Z,9.30
2022-09-12T10:06:00.245Z,11.07
2022-09-12T10:08:35.244Z,11.18
2022-09-12T10:11:17.584Z,8.32
2022-09-12T10:13:56.783Z,17.13
2022-09-12T10:16:30.564Z,10.35
2022-09-12T10:19:04.145Z,8.48
2022-09-12T10:21:45.804Z,5.88
2022-09-12T10:24:24.290Z,5.72
2022-09-12T10:26:58.090Z,5.90
2022-09-12T10:29:33.447Z,6.88
2022-09-12T10:32:08.771Z,11.23
2022-09-12T10:34:44.575Z,6.47
2022-09-12T10:37:25.298Z,13.68
2022-09-12T10:39:59.244Z,8.85
2022-09-12T10:42:47.546Z,11.45
2022-09-12T10:45:22.731Z,14.98
2022-09-12T10:47:55.645Z,10.70
2022-09-12T10:50:31.000Z,6.30
2022-09-12T10:53:19.409Z,5.80
2022-09-12T10:56:02.893Z,6.03
2022-09-12T11:01:21.401Z,7.28
2022-09-12T11:04:09.915Z,5.22
2022-09-12T11:07:02.239Z,4.57
2022-09-12T11:09:46.110Z,5.70
2022-09-12T11:12:25.169Z,4.32
2022-09-12T11:15:12.121Z,6.07
2022-09-12T11:17:51.996Z,13.95
2022-09-12T11:20:38.816Z,7.03
2022-09-12T11:23:55.963Z,5.20
2022-09-12T11:26:42.193Z,4.15
2022-09-12T11:29:20.953Z,3.20
2022-09-12T11:32:25.963Z,4.95
2022-09-12T11:35:04.907Z,11.57
2022-09-12T11:38:11.350Z,5.32
2022-09-12T11:40:46.431Z,5.07
2022-09-12T11:43:29.705Z,5.70
2022-09-12T11:46:09.549Z,3.95
2022-09-12T11:48:47.952Z,4.72
2022-09-12T11:51:25.802Z,3.20
2022-09-12T11:54:09.518Z,3.03
2022-09-12T11:56:45.493Z,3.13
2022-09-12T11:59:29.866Z,12.40
2022-09-12T12:02:03.583Z,7.30
2022-09-12T12:04:41.381Z,14.48
2022-09-12T12:07:13.138Z,4.85
2022-09-12T12:09:49.199Z,5.82
2022-09-12T12:12:25.203Z,3.70
2022-09-12T12:14:59.558Z,2.75
2022-09-12T12:17:32.955Z,4.00
2022-09-12T12:20:08.677Z,2.33
2022-09-12T12:22:52.076Z,2.10
2022-09-12T12:28:02.398Z,2.65
2022-09-12T12:31:02.848Z,3.22
2022-09-12T12:34:00.341Z,1.92
2022-09-12T12:36:36.868Z,2.67
2022-09-12T12:39:51.823Z,1.92
2022-09-12T12:42:59.963Z,1.88
2022-09-12T12:46:11.100Z,1.95
2022-09-12T12:48:55.933Z,2.03
2022-09-12T12:51:48.703Z,4.05
2022-09-12T12:54:50.219Z,3.42
2022-09-12T12:57:32.082Z,1.40
2022-09-12T13:00:06.928Z,1.52
2022-09-12T13:02:51.854Z,1.50
2022-09-12T13:05:25.990Z,3.03
2022-09-12T13:08:02.831Z,1.83
2022-09-12T13:10:35.029Z,1.70
2022-09-12T13:13:08.624Z,1.30
2022-09-12T13:15:51.666Z,2.13
2022-09-12T13:18:30.908Z,1.65
2022-09-12T13:21:09.998Z,1.40
2022-09-12T13:23:42.162Z,1.80
2022-09-12T13:26:27.678Z,1.40
2022-09-12T13:29:15.025Z,2.05
2022-09-12T13:31:50.813Z,2.42
2022-09-12T13:34:27.103Z,1.35
2022-09-12T13:37:21.982Z,2.67
2022-09-12T13:39:59.716Z,0.90
2022-09-12T13:42:40.248Z,1.10
2022-09-12T13:45:15.338Z,1.20
2022-09-12T13:47:50.080Z,1.10
2022-09-12T13:50:24.851Z,1.35
2022-09-12T13:52:59.370Z,4.28
2022-09-12T13:55:33.367Z,2.50
2022-09-12T13:58:06.856Z,1.20
2022-09-12T14:00:38.650Z,1.02
2022-09-12T14:03:45.428Z,0.90
2022-09-12T14:06:19.032Z,0.82
2022-09-12T14:08:51.919Z,1.00
2022-09-12T14:11:27.817Z,1.75
2022-09-12T14:14:04.318Z,1.40
2022-09-12T14:16:40.259Z,0.75
2022-09-12T14:19:12.738Z,1.38
2022-09-12T14:24:17.806Z,2.53
2022-09-12T14:26:50.938Z,0.73
2022-09-12T14:29:25.154Z,0.70
2022-09-12T14:32:05.790Z,0.80
2022-09-12T14:34:37.675Z,2.22
2022-09-12T14:37:12.747Z,0.77
2022-09-12T14:39:45.570Z,1.05
2022-09-12T14:42:22.038Z,1.65
2022-09-12T14:44:58.276Z,1.08
2022-09-12T14:47:38.561Z,0.90
2022-09-12T14:50:17.107Z,1.10
2022-09-12T14:53:03.846Z,2.88
2022-09-12T14:55:43.110Z,1.80
2022-09-12T14:58:22.470Z,2.72
2022-09-12T15:00:56.834Z,1.00
2022-09-12T15:03:31.568Z,1.67
2022-09-12T15:06:05.172Z,1.08
2022-09-12T15:08:38.475Z,1.00
2022-09-12T15:11:10.213Z,1.40
2022-09-12T15:13:42.605Z,2.22
2022-09-12T15:16:14.675Z,1.10
2022-09-12T15:18:46.833Z,2.25
2022-09-12T15:21:20.457Z,1.05
2022-09-12T15:23:53.843Z,1.33
2022-09-12T15:26:30.459Z,0.90
2022-09-12T15:29:03.182Z,1.17
2022-09-12T15:31:35.081Z,1.40
2022-09-12T15:34:06.842Z,3.30
2022-09-12T15:36:38.861Z,0.85
2022-09-12T15:39:12.258Z,2.20
2022-09-12T15:41:44.053Z,0.90
2022-09-12T15:44:15.881Z,2.17
2022-09-12T15:46:47.711Z,1.50
2022-09-12T15:49:19.507Z,1.13
2022-09-12T15:51:51.277Z,1.45
2022-09-12T15:54:24.352Z,1.08
2022-09-12T15:56:56.091Z,2.55
2022-09-12T15:59:27.877Z,1.30
2022-09-12T16:01:59.828Z,1.15
2022-09-12T16:04:31.855Z,1.13
2022-09-12T16:07:04.057Z,1.00
2022-09-12T16:09:37.556Z,1.45
2022-09-12T16:12:09.941Z,1.00
2022-09-12T16:14:41.736Z,1.88
2022-09-12T16:17:13.649Z,1.48
2022-09-12T16:19:45.465Z,3.08
2022-09-12T16:22:17.299Z,0.80
2022-09-12T16:24:50.378Z,1.42
2022-09-12T16:27:22.261Z,1.25
2022-09-12T16:29:54.025Z,1.23
2022-09-12T16:32:25.820Z,1.38
2022-09-12T16:34:57.889Z,1.15
2022-09-12T16:37:30.895Z,1.80
2022-09-12T16:42:39.621Z,1.25
2022-09-12T16:45:13.999Z,1.40
2022-09-12T16:47:45.920Z,1.40
2022-09-12T16:50:17.757Z,2.25
2022-09-12T16:52:49.507Z,0.90
2022-09-12T16:55:22.619Z,1.95
2022-09-12T16:57:54.835Z,1.92
2022-09-12T17:00:26.571Z,1.40
2022-09-12T17:02:59.283Z,1.85
2022-09-12T17:05:31.139Z,1.30
2022-09-12T17:08:03.157Z,5.07
2022-09-12T17:10:40.298Z,1.10
2022-09-12T17:13:12.082Z,2.75
2022-09-12T17:15:43.824Z,2.22
2022-09-12T17:18:15.583Z,2.70
2022-09-12T17:20:47.375Z,1.88
2022-09-12T17:23:19.163Z,1.33
2022-09-12T17:25:52.451Z,1.85
2022-09-12T17:28:24.297Z,1.02
2022-09-12T17:30:57.055Z,8.55
2022-09-12T17:33:29.895Z,2.25
2022-09-12T17:36:02.847Z,1.77
2022-09-12T17:38:36.481Z,4.70
2022-09-12T17:41:17.519Z,3.08
2022-09-12T17:43:52.238Z,3.30
2022-09-12T17:46:25.933Z,2.10
2022-09-12T17:48:58.869Z,5.22
2022-09-12T17:51:31.413Z,4.50
2022-09-12T17:54:05.518Z,1.70
2022-09-12T17:56:39.157Z,3.13
2022-09-12T17:59:14.511Z,3.20
2022-09-12T18:02:05.696Z,5.40
2022-09-12T18:04:37.645Z,2.42
2022-09-12T18:07:09.458Z,2.28
2022-09-12T18:09:44.548Z,2.85
2022-09-12T18:12:19.979Z,6.90
2022-09-12T18:14:51.782Z,2.05
2022-09-12T18:17:23.603Z,3.40
2022-09-12T18:19:55.408Z,4.93
2022-09-12T18:22:27.164Z,5.90
2022-09-12T18:24:59.232Z,3.05
2022-09-12T18:27:32.345Z,6.60
2022-09-12T18:30:20.524Z,7.28
2022-09-12T18:32:53.195Z,3.60
2022-09-12T18:35:25.464Z,2.90
2022-09-12T18:37:57.290Z,3.85
2022-09-12T18:40:29.054Z,5.50
2022-09-12T18:43:02.170Z,4.78
2022-09-12T18:45:34.681Z,3.35
2022-09-12T18:48:06.548Z,6.47
2022-09-12T18:50:38.319Z,7.40
2022-09-12T18:53:10.058Z,4.28
2022-09-12T18:55:42.348Z,6.05
2022-09-12T18:58:15.423Z,3.33
2022-09-12T19:00:49.135Z,3.78
2022-09-12T19:03:20.910Z,3.97
2022-09-12T19:05:53.293Z,7.22
2022-09-12T19:08:25.148Z,10.20
2022-09-12T19:10:57.460Z,3.65
2022-09-12T19:13:31.065Z,4.70
2022-09-12T19:16:04.113Z,5.75
2022-09-12T19:18:37.016Z,6.80
2022-09-12T19:21:13.708Z,7.05
2022-09-12T19:23:45.818Z,5.88
2022-09-12T19:26:19.074Z,5.70
2022-09-12T19:31:26.063Z,3.97
2022-09-12T19:34:00.433Z,6.20
2022-09-12T19:36:48.347Z,6.88
2022-09-12T19:39:20.198Z,4.65
2022-09-12T19:41:52.005Z,5.45
2022-09-12T19:44:27.521Z,7.68
2022-09-12T19:46:59.294Z,5.47
2022-09-12T19:49:31.066Z,4.80
2022-09-12T19:52:03.493Z,7.53
2022-09-12T19:54:35.534Z,6.57
2022-09-12T19:57:07.336Z,7.32
2022-09-12T19:59:40.468Z,5.78
2022-09-12T20:02:12.343Z,5.25
2022-09-12T20:04:44.322Z,5.15
2022-09-12T20:07:16.243Z,6.85
2022-09-12T20:09:48.039Z,8.52
2022-09-12T20:12:19.815Z,7.32
2022-09-12T20:14:53.034Z,8.27
2022-09-12T20:17:24.798Z,9.20
2022-09-12T20:19:57.125Z,6.40
2022-09-12T20:22:29.418Z,8.93
2022-09-12T20:25:01.215Z,6.97
2022-09-12T20:27:32.970Z,8.90
2022-09-12T20:30:07.504Z,5.32
2022-09-12T20:32:39.294Z,7.95
2022-09-12T20:35:11.576Z,7.15
2022-09-12T20:37:43.761Z,9.40
2022-09-12T20:40:15.695Z,7.50
2022-09-12T20:42:47.492Z,9.32
2022-09-12T20:45:20.680Z,8.15
2022-09-12T20:47:52.429Z,5.95
2022-09-12T20:50:24.153Z,7.82
2022-09-12T20:52:55.921Z,5.03
2022-09-12T20:55:27.829Z,10.40
2022-09-12T20:57:59.580Z,8.05
2022-09-12T21:00:33.045Z,7.32
2022-09-12T21:03:05.195Z,4.95
2022-09-12T21:05:37.609Z,5.55
2022-09-12T21:08:09.899Z,7.17
2022-09-12T21:10:42.223Z,6.32
2022-09-12T21:13:14.351Z,4.82
2022-09-12T21:15:47.441Z,11.82
2022-09-12T21:18:19.233Z,8.18
2022-09-12T21:20:51.769Z,5.85
2022-09-12T21:23:24.891Z,7.93
2022-09-12T21:25:58.335Z,5.15
2022-09-12T21:31:04.372Z,4.30
2022-09-12T21:36:09.471Z,4.57
2022-09-12T21:41:15.139Z,7.32
2022-09-12T21:43:46.888Z,4.85
2022-09-12T21:46:20.061Z,5.93
2022-09-12T21:48:51.852Z,5.85
2022-09-12T21:51:23.635Z,5.72
2022-09-12T21:53:55.337Z,5.88
2022-09-12T21:56:27.144Z,6.82
2022-09-12T21:58:58.913Z,4.65
2022-09-12T22:01:32.040Z,5.25
2022-09-12T22:04:03.845Z,6.82
2022-09-12T22:06:35.702Z,5.53
2022-09-12T22:09:07.431Z,6.28
2022-09-12T22:11:39.290Z,4.90
2022-09-12T22:14:11.070Z,6.25
2022-09-12T22:16:44.326Z,6.47
2022-09-12T22:19:16.156Z,5.53
2022-09-12T22:22:06.622Z,8.65
2022-09-12T22:24:38.432Z,10.15
2022-09-12T22:27:10.205Z,6.13
2022-09-12T22:29:42.565Z,6.72
2022-09-12T22:32:15.943Z,7.05
2022-09-12T22:37:19.606Z,4.50
2022-09-12T22:39:51.402Z,6.38
2022-09-12T22:42:23.667Z,7.20
2022-09-12T22:44:55.456Z,4.70
2022-09-12T22:47:28.573Z,5.55
2022-09-12T22:50:00.325Z,7.97
2022-09-12T22:52:32.054Z,6.03
2022-09-12T22:55:04.210Z,5.50
2022-09-12T22:57:36.022Z,8.43
2022-09-12T23:00:12.135Z,5.35
2022-09-12T23:02:45.228Z,6.10
2022-09-12T23:05:17.168Z,5.18
2022-09-12T23:07:50.206Z,8.23
2022-09-12T23:10:22.049Z,6.03
2022-09-12T23:12:55.389Z,7.05
2022-09-12T23:15:28.153Z,4.65
2022-09-12T23:18:01.271Z,4.80
2022-09-12T23:20:33.047Z,7.68
2022-09-12T23:23:04.816Z,6.75
2022-09-12T23:25:36.972Z,6.40
2022-09-12T23:28:08.736Z,8.63
2022-09-12T23:30:40.508Z,6.85
2022-09-12T23:33:13.616Z,7.18
2022-09-12T23:35:45.352Z,7.43
2022-09-12T23:38:17.087Z,6.88
2022-09-12T23:40:48.827Z,4.80
2022-09-12T23:43:20.651Z,5.63
2022-09-12T23:45:52.424Z,5.43
2022-09-12T23:48:26.182Z,6.07
2022-09-12T23:50:57.964Z,5.97
2022-09-12T23:53:29.719Z,7.25
2022-09-12T23:56:02.289Z,6.10
2022-09-12T23:58:34.094Z,4.40
